createdAt,value
2018-05-09T00:00:59.376Z,5.13
2018-05-09T00:03:27.365Z,5.10
2018-05-09T00:05:55.419Z,5.10
2018-05-09T00:08:23.466Z,4.23
2018-05-09T00:10:51.489Z,6.00
2018-05-09T00:13:19.481Z,5.80
2018-05-09T00:15:47.496Z,5.43
2018-05-09T00:18:15.526Z,5.13
2018-05-09T00:20:43.575Z,6.47
2018-05-09T00:23:11.871Z,5.50
2018-05-09T00:25:39.809Z,4.80
2018-05-09T00:28:07.859Z,5.07
2018-05-09T00:30:35.892Z,5.30
2018-05-09T00:33:03.915Z,5.53
2018-05-09T00:35:31.893Z,5.20
2018-05-09T00:37:59.913Z,5.17
2018-05-09T00:40:27.900Z,5.23
2018-05-09T00:42:55.928Z,4.80
2018-05-09T00:45:23.972Z,5.27
2018-05-09T00:47:51.932Z,5.40
2018-05-09T00:50:20.004Z,5.47
2018-05-09T00:52:47.922Z,5.77
2018-05-09T00:55:15.925Z,4.90
2018-05-09T00:57:43.980Z,6.53
2018-05-09T01:00:11.998Z,5.90
2018-05-09T01:02:40.020Z,4.67
2018-05-09T01:05:07.975Z,4.90
2018-05-09T01:07:35.991Z,6.43
2018-05-09T01:10:04.065Z,4.53
2018-05-09T01:12:32.019Z,4.97
2018-05-09T01:15:00.064Z,4.90
2018-05-09T01:17:28.080Z,5.40
2018-05-09T01:19:56.078Z,5.20
2018-05-09T01:22:24.081Z,5.30
2018-05-09T01:24:52.670Z,5.60
2018-05-09T01:27:20.671Z,4.97
2018-05-09T01:29:48.714Z,4.70
2018-05-09T01:32:16.729Z,6.27
2018-05-09T01:34:44.728Z,5.77
2018-05-09T01:37:12.724Z,5.90
2018-05-09T01:39:40.722Z,4.60
2018-05-09T01:42:08.720Z,4.20
2018-05-09T01:44:36.747Z,4.57
2018-05-09T01:47:04.711Z,5.90
2018-05-09T01:49:32.709Z,4.60
2018-05-09T01:52:00.718Z,5.20
2018-05-09T01:54:28.823Z,5.50
2018-05-09T01:56:56.844Z,5.43
2018-05-09T01:59:24.843Z,5.10
2018-05-09T02:01:52.862Z,5.30
2018-05-09T02:04:20.861Z,5.47
2018-05-09T02:06:48.877Z,5.43
2018-05-09T02:09:16.917Z,4.80
2018-05-09T02:11:44.890Z,4.70
2018-05-09T02:14:12.911Z,4.60
2018-05-09T02:16:41.007Z,5.60
2018-05-09T02:19:09.004Z,5.50
2018-05-09T02:21:36.999Z,5.47
2018-05-09T02:24:04.946Z,5.03
2018-05-09T02:26:33.523Z,5.60
2018-05-09T02:29:01.643Z,5.87
2018-05-09T02:31:29.646Z,5.63
2018-05-09T02:33:57.661Z,5.10
2018-05-09T02:36:25.680Z,4.97
2018-05-09T02:38:53.619Z,5.60
2018-05-09T02:41:21.662Z,5.77
2018-05-09T02:43:49.772Z,5.53
2018-05-09T02:46:17.720Z,4.67
2018-05-09T02:48:45.751Z,5.47
2018-05-09T02:51:13.768Z,5.63
2018-05-09T02:53:41.805Z,5.90
2018-05-09T02:56:09.792Z,5.00
2018-05-09T02:58:37.805Z,5.63
2018-05-09T03:01:05.779Z,6.00
2018-05-09T03:03:33.808Z,5.83
2018-05-09T03:06:01.712Z,6.03
2018-05-09T03:08:29.614Z,5.93
2018-05-09T03:10:57.584Z,6.47
2018-05-09T03:13:25.602Z,6.93
2018-05-09T03:15:53.618Z,6.93
2018-05-09T03:18:21.671Z,8.03
2018-05-09T03:20:49.706Z,7.13
2018-05-09T03:23:17.719Z,6.60
2018-05-09T03:25:45.655Z,5.73
2018-05-09T03:28:14.224Z,6.23
2018-05-09T03:30:42.208Z,5.00
2018-05-09T03:33:10.232Z,5.40
2018-05-09T03:35:38.221Z,5.57
2018-05-09T03:38:06.207Z,5.67
2018-05-09T03:40:34.162Z,6.30
2018-05-09T03:43:02.172Z,5.90
2018-05-09T03:45:30.129Z,5.87
2018-05-09T03:47:58.155Z,6.27
2018-05-09T03:50:26.093Z,6.07
2018-05-09T03:52:54.052Z,5.90
2018-05-09T03:55:22.102Z,5.50
2018-05-09T03:57:50.111Z,6.53
2018-05-09T04:00:18.143Z,5.50
2018-05-09T04:02:57.946Z,4.80
2018-05-09T04:05:37.794Z,4.40
2018-05-09T04:08:18.681Z,4.37
2018-05-09T04:10:46.690Z,3.73
2018-05-09T04:13:14.792Z,4.20
2018-05-09T04:15:42.809Z,5.10
2018-05-09T04:18:11.164Z,6.30
2018-05-09T04:20:39.272Z,5.10
2018-05-09T04:23:07.210Z,5.37
2018-05-09T04:25:35.191Z,5.67
2018-05-09T04:28:03.181Z,7.23
2018-05-09T04:30:31.366Z,6.30
2018-05-09T04:32:59.445Z,5.90
2018-05-09T04:35:27.490Z,5.30
2018-05-09T04:37:55.465Z,6.40
2018-05-09T04:40:23.444Z,5.07
2018-05-09T04:42:51.445Z,4.87
2018-05-09T04:45:19.498Z,4.83
2018-05-09T04:47:47.504Z,6.53
2018-05-09T04:50:15.512Z,6.33
2018-05-09T04:52:43.510Z,6.67
2018-05-09T04:55:11.511Z,7.67
2018-05-09T04:57:39.521Z,7.57
2018-05-09T05:00:07.558Z,6.80
2018-05-09T05:02:35.541Z,7.10
2018-05-09T05:05:03.585Z,5.70
2018-05-09T05:07:31.605Z,6.80
2018-05-09T05:09:59.613Z,6.87
2018-05-09T05:12:27.630Z,6.97
2018-05-09T05:14:55.594Z,6.37
2018-05-09T05:17:23.617Z,5.20
2018-05-09T05:19:51.611Z,6.90
2018-05-09T05:22:19.672Z,6.03
2018-05-09T05:24:47.702Z,7.30
2018-05-09T05:27:15.684Z,6.67
2018-05-09T05:29:43.766Z,7.67
2018-05-09T05:32:12.117Z,6.80
2018-05-09T05:34:40.168Z,10.80
2018-05-09T05:37:08.186Z,12.27
2018-05-09T05:39:36.155Z,10.17
2018-05-09T05:42:04.155Z,18.83
2018-05-09T05:44:32.154Z,19.83
2018-05-09T05:47:00.272Z,17.73
2018-05-09T05:49:28.434Z,15.00
2018-05-09T05:51:56.464Z,13.90
2018-05-09T05:54:24.561Z,14.50
2018-05-09T05:56:52.537Z,10.50
2018-05-09T05:59:20.581Z,11.20
2018-05-09T06:01:48.667Z,11.17
2018-05-09T06:04:16.671Z,9.47
2018-05-09T06:06:44.679Z,8.83
2018-05-09T06:09:12.685Z,9.53
2018-05-09T06:11:40.738Z,8.63
2018-05-09T06:14:08.673Z,9.10
2018-05-09T06:16:36.661Z,7.67
2018-05-09T06:19:04.726Z,7.60
2018-05-09T06:21:32.771Z,5.63
2018-05-09T06:24:00.885Z,6.47
2018-05-09T06:26:28.887Z,6.80
2018-05-09T06:28:56.895Z,6.27
2018-05-09T06:31:24.935Z,11.23
2018-05-09T06:33:53.191Z,6.43
2018-05-09T06:36:21.272Z,6.17
2018-05-09T06:38:49.281Z,7.03
2018-05-09T06:41:17.386Z,6.50
2018-05-09T06:43:45.482Z,6.80
2018-05-09T06:46:13.511Z,7.80
2018-05-09T06:48:41.506Z,7.83
2018-05-09T06:51:09.464Z,5.40
2018-05-09T06:53:37.433Z,6.43
2018-05-09T06:56:05.438Z,6.43
2018-05-09T06:58:33.392Z,6.90
2018-05-09T07:01:01.494Z,6.13
2018-05-09T07:03:29.595Z,7.20
2018-05-09T07:05:57.615Z,6.10
2018-05-09T07:08:25.609Z,6.77
2018-05-09T07:10:53.701Z,6.90
2018-05-09T07:13:21.737Z,6.47
2018-05-09T07:15:49.764Z,6.40
2018-05-09T07:18:17.702Z,5.43
2018-05-09T07:20:45.669Z,5.50
2018-05-09T07:23:13.801Z,4.60
2018-05-09T07:25:41.717Z,5.80
2018-05-09T07:28:09.746Z,5.57
2018-05-09T07:30:37.764Z,5.20
2018-05-09T07:33:05.742Z,6.10
2018-05-09T07:35:34.174Z,5.60
2018-05-09T07:38:02.185Z,7.00
2018-05-09T07:40:30.254Z,6.03
2018-05-09T07:42:58.247Z,5.90
2018-05-09T07:45:26.277Z,7.13
2018-05-09T07:47:54.346Z,5.90
2018-05-09T07:50:22.314Z,5.03
2018-05-09T07:52:50.347Z,5.00
2018-05-09T07:55:18.357Z,4.67
2018-05-09T07:57:46.392Z,5.20
2018-05-09T08:00:14.408Z,4.37
2018-05-09T08:02:42.441Z,4.53
2018-05-09T08:05:10.417Z,3.97
2018-05-09T08:07:38.437Z,4.20
2018-05-09T08:10:06.508Z,3.50
2018-05-09T08:12:34.439Z,3.70
2018-05-09T08:15:02.530Z,3.70
2018-05-09T08:17:30.516Z,3.70
2018-05-09T08:19:58.575Z,5.03
2018-05-09T08:22:26.549Z,5.10
2018-05-09T08:24:54.590Z,3.67
2018-05-09T08:27:22.618Z,4.53
2018-05-09T08:29:50.691Z,3.80
2018-05-09T08:32:18.843Z,4.03
2018-05-09T08:34:46.956Z,4.23
2018-05-09T08:37:15.329Z,3.80
2018-05-09T08:39:43.414Z,5.20
2018-05-09T08:42:11.450Z,4.03
2018-05-09T08:44:39.414Z,4.37
2018-05-09T08:47:07.411Z,2.80
2018-05-09T08:49:36.878Z,3.30
2018-05-09T08:52:04.944Z,4.00
2018-05-09T08:54:32.950Z,3.57
2018-05-09T08:57:00.981Z,4.10
2018-05-09T08:59:28.970Z,3.60
2018-05-09T09:01:57.001Z,3.10
2018-05-09T09:04:25.066Z,3.60
2018-05-09T09:06:53.030Z,3.40
2018-05-09T09:09:21.030Z,3.63
2018-05-09T09:11:49.172Z,3.50
2018-05-09T09:14:17.270Z,3.87
2018-05-09T09:16:45.351Z,2.73
2018-05-09T09:19:13.452Z,3.67
2018-05-09T09:21:41.465Z,3.23
2018-05-09T09:24:09.535Z,3.87
2018-05-09T09:26:37.409Z,3.83
2018-05-09T09:29:05.506Z,3.97
2018-05-09T09:31:33.465Z,3.07
2018-05-09T09:34:01.431Z,2.70
2018-05-09T09:36:29.488Z,3.37
2018-05-09T09:38:57.892Z,2.47
2018-05-09T09:41:25.971Z,3.00
2018-05-09T09:43:53.955Z,2.90
2018-05-09T09:46:21.878Z,2.97
2018-05-09T09:48:49.868Z,2.50
2018-05-09T09:51:17.875Z,2.80
2018-05-09T09:53:45.897Z,3.37
2018-05-09T09:56:13.880Z,2.90
2018-05-09T09:58:41.901Z,3.10
2018-05-09T10:01:09.864Z,2.70
2018-05-09T10:03:37.859Z,3.03
2018-05-09T10:06:05.794Z,2.60
2018-05-09T10:08:33.869Z,3.23
2018-05-09T10:11:01.845Z,3.80
2018-05-09T10:13:29.895Z,2.93
2018-05-09T10:15:57.903Z,2.93
2018-05-09T10:18:25.946Z,2.97
2018-05-09T10:20:53.965Z,2.90
2018-05-09T10:23:22.088Z,2.87
2018-05-09T10:25:50.137Z,3.03
2018-05-09T10:28:18.231Z,3.13
2018-05-09T10:30:46.264Z,2.90
2018-05-09T10:33:14.335Z,3.07
2018-05-09T10:35:42.352Z,2.73
2018-05-09T10:38:10.455Z,3.43
2018-05-09T10:40:38.868Z,2.07
2018-05-09T10:43:06.902Z,3.40
2018-05-09T10:45:34.979Z,2.27
2018-05-09T10:48:03.040Z,2.00
2018-05-09T10:50:30.987Z,2.60
2018-05-09T10:52:58.923Z,1.60
2018-05-09T10:55:26.893Z,3.03
2018-05-09T10:57:54.934Z,2.10
2018-05-09T11:00:22.955Z,2.37
2018-05-09T11:02:50.989Z,2.20
2018-05-09T11:05:19.067Z,2.47
2018-05-09T11:07:47.063Z,2.27
2018-05-09T11:10:15.067Z,1.73
2018-05-09T11:12:43.078Z,1.87
2018-05-09T11:15:11.100Z,2.40
2018-05-09T11:17:39.183Z,3.03
2018-05-09T11:20:07.178Z,1.80
2018-05-09T11:22:35.251Z,2.50
2018-05-09T11:25:03.231Z,1.73
2018-05-09T11:27:31.235Z,1.80
2018-05-09T11:29:59.385Z,2.33
2018-05-09T11:32:27.501Z,1.93
2018-05-09T11:34:55.537Z,1.80
2018-05-09T11:37:23.582Z,1.57
2018-05-09T11:39:51.588Z,3.00
2018-05-09T11:42:19.916Z,2.43
2018-05-09T11:44:47.860Z,1.63
2018-05-09T11:47:15.879Z,2.00
2018-05-09T11:49:43.947Z,1.97
2018-05-09T11:52:12.015Z,2.20
2018-05-09T11:54:40.029Z,2.17
2018-05-09T11:57:08.066Z,2.07
2018-05-09T11:59:36.146Z,1.90
2018-05-09T12:02:04.247Z,2.63
2018-05-09T12:04:32.368Z,2.23
2018-05-09T12:07:00.381Z,2.50
2018-05-09T12:09:28.346Z,1.60
2018-05-09T12:11:56.497Z,2.00
2018-05-09T12:14:24.563Z,2.70
2018-05-09T12:16:52.603Z,2.03
2018-05-09T12:19:20.756Z,2.50
2018-05-09T12:21:48.897Z,1.50
2018-05-09T12:24:17.050Z,2.07
2018-05-09T12:26:45.494Z,1.83
2018-05-09T12:29:13.582Z,1.37
2018-05-09T12:31:41.676Z,1.67
2018-05-09T12:34:09.885Z,1.87
2018-05-09T12:36:38.005Z,2.50
2018-05-09T12:39:06.100Z,1.40
2018-05-09T12:41:34.263Z,2.00
2018-05-09T12:44:02.789Z,1.80
2018-05-09T12:46:30.832Z,2.73
2018-05-09T12:48:59.835Z,2.40
2018-05-09T12:51:27.905Z,2.20
2018-05-09T12:53:55.934Z,2.13
2018-05-09T12:56:23.999Z,1.40
2018-05-09T12:58:52.022Z,1.80
2018-05-09T13:01:20.074Z,2.03
2018-05-09T13:03:48.126Z,2.30
2018-05-09T13:06:16.262Z,1.83
2018-05-09T13:08:44.930Z,2.07
2018-05-09T13:11:13.043Z,2.50
2018-05-09T13:13:41.042Z,2.20
2018-05-09T13:16:09.057Z,2.33
2018-05-09T13:18:36.903Z,2.30
2018-05-09T13:21:04.948Z,2.33
2018-05-09T13:23:32.987Z,2.33
2018-05-09T13:26:01.042Z,2.70
2018-05-09T13:28:29.090Z,2.60
2018-05-09T13:30:57.168Z,2.30
2018-05-09T13:33:25.193Z,2.33
2018-05-09T13:35:53.283Z,2.70
2018-05-09T13:38:21.291Z,2.67
2018-05-09T13:40:49.408Z,2.80
2018-05-09T13:43:17.431Z,2.23
2018-05-09T13:45:45.763Z,3.20
2018-05-09T13:48:13.789Z,2.70
2018-05-09T13:50:41.854Z,2.70
2018-05-09T13:53:09.962Z,3.33
2018-05-09T14:42:18.995Z,1.97
2018-05-09T14:44:47.720Z,1.87
2018-05-09T14:47:17.358Z,1.90
2018-05-09T14:49:45.787Z,2.50
2018-05-09T14:52:14.353Z,1.57
2018-05-09T14:54:42.645Z,1.47
2018-05-09T14:57:11.311Z,1.77
2018-05-09T14:59:39.799Z,1.67
2018-05-09T15:02:08.018Z,2.30
2018-05-09T15:04:36.443Z,2.03
2018-05-09T15:07:04.753Z,3.17
2018-05-09T15:09:33.193Z,3.77
2018-05-09T15:12:01.853Z,3.50
2018-05-09T15:14:30.405Z,2.10
2018-05-09T15:16:58.506Z,2.47
2018-05-09T15:19:26.935Z,2.10
2018-05-09T15:21:55.393Z,2.50
2018-05-09T15:24:23.895Z,2.30
2018-05-09T15:26:52.473Z,2.60
2018-05-09T15:29:21.041Z,2.40
2018-05-09T15:31:49.365Z,2.97
2018-05-09T15:34:18.006Z,3.27
2018-05-09T15:36:46.487Z,3.27
2018-05-09T15:39:14.889Z,3.90
2018-05-09T15:41:43.447Z,2.40
2018-05-09T15:44:12.225Z,2.07
2018-05-09T15:46:40.527Z,2.83
2018-05-09T15:49:09.010Z,3.13
2018-05-09T15:51:37.571Z,2.23
2018-05-09T15:54:05.913Z,3.17
2018-05-09T15:56:34.526Z,2.70
2018-05-09T15:59:02.906Z,2.40
2018-05-09T16:01:31.407Z,2.50
2018-05-09T16:03:59.870Z,4.03
2018-05-09T16:06:28.318Z,4.43
2018-05-09T16:08:56.723Z,4.50
2018-05-09T16:11:25.315Z,4.60
2018-05-09T16:13:53.620Z,3.80
2018-05-09T16:16:22.305Z,4.07
2018-05-09T16:18:50.751Z,3.90
2018-05-09T16:21:19.063Z,4.60
2018-05-09T16:23:47.516Z,6.20
2018-05-09T16:26:15.949Z,9.07
2018-05-09T16:28:44.382Z,4.90
2018-05-09T16:31:13.160Z,3.40
2018-05-09T16:33:41.702Z,3.53
2018-05-09T16:36:10.313Z,2.73
2018-05-09T16:38:39.007Z,3.70
2018-05-09T16:41:07.909Z,2.90
2018-05-09T16:43:36.578Z,3.00
2018-05-09T16:46:04.827Z,2.83
2018-05-09T16:48:33.435Z,2.70
2018-05-09T16:51:02.023Z,3.27
2018-05-09T16:53:30.324Z,3.37
2018-05-09T16:55:58.983Z,3.13
2018-05-09T16:58:27.663Z,3.50
2018-05-09T17:00:56.059Z,2.63
2018-05-09T17:03:24.851Z,2.90
2018-05-09T17:05:53.514Z,3.10
2018-05-09T17:08:21.965Z,3.90
2018-05-09T17:10:50.515Z,3.20
2018-05-09T17:13:19.166Z,4.03
2018-05-09T17:15:47.744Z,5.00
2018-05-09T17:18:16.189Z,3.10
2018-05-09T17:20:44.720Z,3.90
2018-05-09T17:23:13.388Z,3.53
2018-05-09T17:25:41.636Z,5.57
2018-05-09T17:28:10.154Z,4.30
2018-05-09T17:30:38.748Z,4.03
2018-05-09T17:33:07.060Z,4.20
2018-05-09T17:35:35.596Z,4.33
2018-05-09T17:38:04.173Z,4.90
2018-05-09T17:40:32.786Z,3.80
2018-05-09T17:43:01.256Z,4.00
2018-05-09T17:45:29.818Z,4.00
2018-05-09T17:47:58.111Z,4.47
2018-05-09T17:50:27.594Z,4.63
2018-05-09T17:52:56.006Z,4.90
2018-05-09T17:55:24.241Z,4.63
2018-05-09T17:57:52.654Z,3.90
2018-05-09T18:00:21.124Z,3.83
2018-05-09T18:02:49.486Z,5.23
2018-05-09T18:05:17.974Z,4.07
2018-05-09T18:07:46.343Z,5.80
2018-05-09T18:10:14.557Z,4.93
2018-05-09T18:12:43.034Z,5.33
2018-05-09T18:15:11.413Z,5.70
2018-05-09T18:17:39.956Z,6.70
2018-05-09T18:20:08.382Z,4.77
2018-05-09T18:22:36.883Z,5.67
2018-05-09T18:25:05.194Z,6.00
2018-05-09T18:27:33.738Z,3.97
2018-05-09T18:30:02.079Z,4.40
2018-05-09T18:32:30.625Z,6.07
2018-05-09T18:34:59.022Z,4.77
2018-05-09T18:37:27.595Z,4.67
2018-05-09T18:39:56.105Z,5.00
2018-05-09T18:42:24.882Z,5.27
2018-05-09T18:44:52.821Z,5.73
2018-05-09T18:47:20.873Z,6.07
2018-05-09T18:49:48.907Z,4.30
2018-05-09T18:52:16.993Z,4.60
2018-05-09T18:54:45.295Z,4.20
2018-05-09T18:57:13.263Z,4.10
2018-05-09T18:59:41.640Z,4.10
2018-05-09T19:02:10.037Z,4.57
2018-05-09T19:04:38.732Z,4.70
2018-05-09T19:07:07.027Z,4.70
2018-05-09T19:09:35.483Z,4.47
2018-05-09T19:12:03.665Z,3.63
2018-05-09T19:14:32.042Z,3.37
2018-05-09T19:17:00.118Z,3.47
2018-05-09T19:19:28.374Z,3.57
2018-05-09T19:21:57.066Z,3.10
2018-05-09T19:24:25.553Z,3.10
2018-05-09T19:26:53.829Z,4.70
2018-05-09T19:29:22.244Z,4.30
2018-05-09T19:31:50.699Z,4.20
2018-05-09T19:34:19.292Z,3.70
2018-05-09T19:36:47.758Z,4.10
2018-05-09T19:39:16.217Z,3.87
2018-05-09T19:41:44.981Z,3.93
2018-05-09T19:44:13.505Z,6.30
2018-05-09T19:46:42.072Z,3.73
2018-05-09T19:49:10.549Z,4.40
2018-05-09T19:51:38.838Z,4.03
2018-05-09T19:54:07.307Z,3.83
2018-05-09T19:56:36.184Z,5.13
2018-05-09T19:59:04.525Z,4.83
2018-05-09T20:01:33.372Z,4.87
2018-05-09T20:04:02.146Z,5.33
2018-05-09T20:06:30.735Z,4.47
2018-05-09T20:08:59.337Z,3.90
2018-05-09T20:11:28.002Z,3.57
2018-05-09T20:13:56.743Z,3.30
2018-05-09T20:16:25.022Z,3.67
2018-05-09T20:18:53.344Z,3.97
2018-05-09T20:21:21.907Z,4.23
2018-05-09T20:23:50.657Z,4.27
2018-05-09T20:26:19.445Z,4.13
2018-05-09T20:28:53.394Z,4.60
2018-05-09T20:31:39.464Z,4.43
2018-05-09T20:34:08.016Z,11.10
2018-05-09T20:36:36.359Z,14.20
2018-05-09T20:39:04.977Z,13.80
2018-05-09T20:41:33.079Z,13.40
2018-05-09T20:44:01.558Z,10.57
2018-05-09T20:46:29.729Z,8.50
2018-05-09T20:48:57.752Z,5.93
2018-05-09T20:51:38.091Z,6.00
2018-05-09T20:54:06.410Z,5.53
2018-05-09T20:56:35.063Z,5.33
2018-05-09T20:59:03.630Z,4.63
2018-05-09T21:01:43.466Z,5.20
2018-05-09T21:04:11.542Z,6.93
2018-05-09T21:06:39.593Z,4.90
2018-05-09T21:09:07.737Z,5.53
2018-05-09T21:11:36.346Z,6.03
2018-05-09T21:14:04.974Z,5.50
2018-05-09T21:16:33.543Z,5.83
2018-05-09T21:19:01.987Z,6.20
2018-05-09T21:21:30.725Z,5.37
2018-05-09T21:23:58.822Z,5.60
2018-05-09T21:26:26.827Z,5.70
2018-05-09T21:28:54.852Z,5.57
2018-05-09T21:31:22.886Z,5.87
2018-05-09T21:33:50.917Z,6.03
2018-05-09T21:36:19.101Z,6.50
2018-05-09T21:38:47.081Z,8.63
2018-05-09T21:41:15.143Z,7.90
2018-05-09T21:43:43.162Z,7.20
2018-05-09T21:46:11.223Z,6.50
2018-05-09T21:48:39.235Z,5.30
2018-05-09T21:51:07.222Z,4.40
2018-05-09T21:53:35.264Z,5.30
2018-05-09T21:56:03.386Z,4.53
2018-05-09T21:58:31.326Z,4.97
2018-05-09T22:00:59.442Z,4.30
2018-05-09T22:03:27.404Z,5.03
2018-05-09T22:05:55.431Z,4.70
2018-05-09T22:08:23.515Z,3.57
2018-05-09T22:10:51.682Z,3.60
2018-05-09T22:13:19.747Z,4.20
2018-05-09T22:15:48.269Z,4.13
2018-05-09T22:18:17.052Z,4.30
2018-05-09T22:20:45.483Z,3.90
2018-05-09T22:23:14.024Z,3.83
2018-05-09T22:25:42.047Z,4.00
2018-05-09T22:28:10.066Z,4.23
2018-05-09T22:30:38.063Z,3.93
2018-05-09T22:33:06.094Z,4.50
2018-05-09T22:35:34.088Z,5.07
2018-05-09T22:38:02.078Z,4.60
2018-05-09T22:40:30.090Z,5.00
2018-05-09T22:42:58.173Z,4.73
2018-05-09T22:45:26.183Z,5.30
2018-05-09T22:47:54.192Z,4.40
2018-05-09T22:50:22.175Z,4.20
2018-05-09T22:52:50.191Z,5.00
2018-05-09T22:55:18.207Z,4.37
2018-05-09T22:57:46.250Z,5.40
2018-05-09T23:00:14.350Z,4.53
2018-05-09T23:02:42.601Z,4.77
2018-05-09T23:05:10.604Z,4.80
2018-05-09T23:07:38.623Z,5.63
2018-05-09T23:10:06.661Z,4.87
2018-05-09T23:12:34.642Z,5.23
2018-05-09T23:15:02.765Z,4.90
2018-05-09T23:17:30.762Z,5.23
2018-05-09T23:19:58.723Z,4.53
2018-05-09T23:22:26.755Z,4.70
2018-05-09T23:24:54.874Z,5.53
2018-05-09T23:27:22.911Z,5.23
2018-05-09T23:29:50.898Z,5.33
2018-05-09T23:32:19.003Z,4.83
2018-05-09T23:34:47.020Z,5.03
2018-05-09T23:37:14.985Z,5.00
2018-05-09T23:39:43.009Z,4.90
2018-05-09T23:42:11.049Z,4.33
2018-05-09T23:44:39.666Z,4.43
2018-05-09T23:47:08.100Z,4.73
2018-05-09T23:49:36.796Z,5.40
2018-05-09T23:52:05.317Z,4.57
2018-05-09T23:54:33.749Z,4.57
2018-05-09T23:57:02.200Z,4.80
2018-05-09T23:59:30.521Z,4.63
